Eleonora E — MEDD4 — position and weather

sailwx.info

Track history (hours):
 
Tides and Currents Weather Stations Pressure Air Temp Water Temp Dewpoint Dewpoint Depression Visibility Wind Speed Wind Dir Waves Ship Positions

Eleonora E

Last reported at 2015-May-30 01:33 UTC. Time now 2015-May-30 02:32 UTC.
Position N 50°46' W 001°18'.

Length 41 m; draft 5.2 m.

Type: Sailing vessel. MMSI: 235008680.

Date/timePositionNaut miles runAvg speedWind from/ knotsBaromVisibWave heightAir tempDewpointWater temp
2015-May-30 01:33N 50°46' W 001°18'0 0.0
2015-May-30 00:33N 50°46' W 001°18'0 0.0
2015-May-29 23:33N 50°46' W 001°18'0 0.0
2015-May-29 22:33N 50°46' W 001°18'0 0.0
2015-May-29 21:32N 50°46' W 001°18'0 0.0
2015-May-29 20:33N 50°46' W 001°18'0 0.0
2015-May-29 19:32N 50°46' W 001°18'0 0.0
2015-May-29 18:33N 50°46' W 001°18'0 0.0
2015-May-29 17:32N 50°46' W 001°18'  
2015-May-25 18:21N 50°46' W 001°18'0 0.0
2015-May-25 17:33N 50°46' W 001°18'0 0.0
2015-May-25 16:33N 50°46' W 001°18'0 0.0
2015-May-25 15:33N 50°46' W 001°18'0 0.0
2015-May-25 14:32N 50°46' W 001°18'0 0.0
2015-May-25 11:08N 50°46' W 001°18'0 0.0
2015-May-25 10:32N 50°46' W 001°18'0 0.0
2015-May-25 01:33N 50°46' W 001°18'0 0.0
2015-May-25 00:33N 50°46' W 001°18'0 0.0
2015-May-24 23:32N 50°46' W 001°18'0 0.0
2015-May-24 22:33N 50°46' W 001°18'0 0.0
2015-May-24 21:32N 50°46' W 001°18'0 0.0
2015-May-24 20:33N 50°46' W 001°18'0 0.0
2015-May-24 19:32N 50°46' W 001°18'0 0.0
2015-May-24 18:33N 50°46' W 001°18'0 0.0
2015-May-24 17:32N 50°46' W 001°18'0 0.0
2015-May-24 16:32N 50°46' W 001°18'0 0.0
2015-May-24 15:33N 50°46' W 001°18'0 0.0
2015-May-24 14:33N 50°46' W 001°18'0 0.0
2015-May-24 11:22N 50°46' W 001°18'0 0.0
2015-May-24 10:33N 50°46' W 001°18'0 0.0
2015-May-24 09:33N 50°46' W 001°18'0 0.0
2015-May-23 18:12N 50°46' W 001°18'0 0.0
2015-May-23 17:32N 50°46' W 001°18'0 0.0
2015-May-23 16:33N 50°46' W 001°18'0 0.0
2015-May-23 15:33N 50°46' W 001°18'0 0.0
2015-May-23 14:32N 50°46' W 001°18'0 0.0
2015-May-23 13:32N 50°46' W 001°18'1 0.7
2015-May-23 12:33N 50°47' W 001°18'4 4.3
2015-May-23 11:32N 50°45' W 001°24'10 9.2
2015-May-23 10:27N 50°39' W 001°37'61 7.4
2015-May-23 02:06N 50°16' W 003°06'  
Track history (hours):
 
Tides and Currents Weather Stations Pressure Air Temp Water Temp Dewpoint Dewpoint Depression Visibility Wind Speed Wind Dir Waves Ship Positions

Eleonora E

Last reported at 2015-May-30 01:33 UTC. Time now 2015-May-30 02:32 UTC.
Position N 50°46' W 001°18'.

Length 41 m; draft 5.2 m.

Type: Sailing vessel. MMSI: 235008680.

Date/timePositionNaut miles runAvg speedWind from/ knotsBaromVisibWave heightAir tempDewpointWater temp
2015-May-30 01:33N 50°46' W 001°18'0 0.0
2015-May-30 00:33N 50°46' W 001°18'0 0.0
2015-May-29 23:33N 50°46' W 001°18'0 0.0
2015-May-29 22:33N 50°46' W 001°18'0 0.0
2015-May-29 21:32N 50°46' W 001°18'0 0.0
2015-May-29 20:33N 50°46' W 001°18'0 0.0
2015-May-29 19:32N 50°46' W 001°18'0 0.0
2015-May-29 18:33N 50°46' W 001°18'0 0.0
2015-May-29 17:32N 50°46' W 001°18'  
2015-May-25 18:21N 50°46' W 001°18'0 0.0
2015-May-25 17:33N 50°46' W 001°18'0 0.0
2015-May-25 16:33N 50°46' W 001°18'0 0.0
2015-May-25 15:33N 50°46' W 001°18'0 0.0
2015-May-25 14:32N 50°46' W 001°18'0 0.0
2015-May-25 11:08N 50°46' W 001°18'0 0.0
2015-May-25 10:32N 50°46' W 001°18'0 0.0
2015-May-25 01:33N 50°46' W 001°18'0 0.0
2015-May-25 00:33N 50°46' W 001°18'0 0.0
2015-May-24 23:32N 50°46' W 001°18'0 0.0
2015-May-24 22:33N 50°46' W 001°18'0 0.0
2015-May-24 21:32N 50°46' W 001°18'0 0.0
2015-May-24 20:33N 50°46' W 001°18'0 0.0
2015-May-24 19:32N 50°46' W 001°18'0 0.0
2015-May-24 18:33N 50°46' W 001°18'0 0.0
2015-May-24 17:32N 50°46' W 001°18'0 0.0
2015-May-24 16:32N 50°46' W 001°18'0 0.0
2015-May-24 15:33N 50°46' W 001°18'0 0.0
2015-May-24 14:33N 50°46' W 001°18'0 0.0
2015-May-24 11:22N 50°46' W 001°18'0 0.0
2015-May-24 10:33N 50°46' W 001°18'0 0.0
2015-May-24 09:33N 50°46' W 001°18'0 0.0
2015-May-23 18:12N 50°46' W 001°18'0 0.0
2015-May-23 17:32N 50°46' W 001°18'0 0.0
2015-May-23 16:33N 50°46' W 001°18'0 0.0
2015-May-23 15:33N 50°46' W 001°18'0 0.0
2015-May-23 14:32N 50°46' W 001°18'0 0.0
2015-May-23 13:32N 50°46' W 001°18'1 0.7
2015-May-23 12:33N 50°47' W 001°18'4 4.3
2015-May-23 11:32N 50°45' W 001°24'10 9.2
2015-May-23 10:27N 50°39' W 001°37'61 7.4
2015-May-23 02:06N 50°16' W 003°06'  

Dump ship's entire track history